createdAt,value
2022-10-12T00:03:38.250Z,15.17
2022-10-12T00:08:46.178Z,13.83
2022-10-12T00:13:55.807Z,12.80
2022-10-12T00:19:03.906Z,12.17
2022-10-12T00:24:11.827Z,12.33
2022-10-12T00:29:19.850Z,13.63
2022-10-12T00:34:27.715Z,11.07
2022-10-12T00:39:36.070Z,13.43
2022-10-12T00:44:46.726Z,13.43
2022-10-12T00:49:57.887Z,12.50
2022-10-12T00:55:07.202Z,12.47
2022-10-12T01:00:15.575Z,12.83
2022-10-12T01:05:23.631Z,13.33
2022-10-12T01:10:31.519Z,13.40
2022-10-12T01:15:43.327Z,12.77
2022-10-12T01:26:09.848Z,12.07
2022-10-12T01:31:20.942Z,12.03
2022-10-12T01:41:48.281Z,14.10
2022-10-12T01:46:57.298Z,12.57
2022-10-12T01:52:08.510Z,12.27
2022-10-12T02:07:46.345Z,12.97
2022-10-12T02:12:54.510Z,12.80
2022-10-12T02:18:03.595Z,11.87
2022-10-12T02:23:11.891Z,10.17
2022-10-12T02:28:25.235Z,11.30
2022-10-12T02:33:36.391Z,10.70
2022-10-12T02:38:47.427Z,8.87
2022-10-12T02:43:58.624Z,11.27
2022-10-12T02:49:06.600Z,12.37
2022-10-12T02:54:14.384Z,12.17
2022-10-12T02:59:23.228Z,13.40
2022-10-12T03:04:31.239Z,12.90
2022-10-12T03:09:39.161Z,12.60
2022-10-12T03:14:46.978Z,12.67
2022-10-12T03:19:54.923Z,12.70
2022-10-12T03:25:02.980Z,13.70
2022-10-12T03:30:11.908Z,14.90
2022-10-12T03:35:19.729Z,14.10
2022-10-12T03:40:28.622Z,15.77
2022-10-12T03:45:37.088Z,14.93
2022-10-12T03:50:46.652Z,12.77
2022-10-12T03:55:55.845Z,13.10
2022-10-12T04:01:04.007Z,12.87
2022-10-12T04:06:12.027Z,12.43
2022-10-12T04:11:20.711Z,12.90
2022-10-12T04:16:31.126Z,12.87
2022-10-12T04:21:39.148Z,13.63
2022-10-12T04:26:47.961Z,13.23
2022-10-12T04:31:55.833Z,11.80
2022-10-12T04:37:04.472Z,11.60
2022-10-12T04:42:12.454Z,12.00
2022-10-12T04:47:20.891Z,12.60
2022-10-12T04:52:28.889Z,12.10
2022-10-12T04:57:37.518Z,11.53
2022-10-12T05:02:45.552Z,12.27
2022-10-12T05:13:32.502Z,12.03
2022-10-12T05:18:40.293Z,13.57
2022-10-12T05:23:52.868Z,12.63
2022-10-12T05:29:04.283Z,12.87
2022-10-12T05:34:12.273Z,14.07
2022-10-12T05:39:20.230Z,13.77
2022-10-12T05:44:28.117Z,12.53
2022-10-12T05:49:36.209Z,13.23
2022-10-12T05:54:44.509Z,11.97
2022-10-12T05:59:52.742Z,13.67
2022-10-12T06:05:01.106Z,12.40
2022-10-12T06:10:12.371Z,12.60
2022-10-12T06:15:21.967Z,13.80
2022-10-12T06:20:29.809Z,15.50
2022-10-12T06:25:38.188Z,16.47
2022-10-12T06:30:46.145Z,15.60
2022-10-12T06:35:55.231Z,13.70
2022-10-12T06:41:03.048Z,13.73
2022-10-12T06:46:11.196Z,15.00
2022-10-12T06:51:19.437Z,16.07
2022-10-12T06:56:27.656Z,17.87
2022-10-12T07:01:35.645Z,20.73
2022-10-12T07:06:43.549Z,21.03
2022-10-12T07:11:51.430Z,21.67
2022-10-12T07:16:59.393Z,24.27
2022-10-12T07:22:07.239Z,24.63
2022-10-12T07:27:15.165Z,18.77
2022-10-12T07:32:23.305Z,19.67
2022-10-12T07:37:32.309Z,20.37
2022-10-12T07:42:59.150Z,19.43
2022-10-12T07:47:50.038Z,18.03
2022-10-12T07:52:58.579Z,21.10
2022-10-12T07:58:06.349Z,18.10
2022-10-12T08:03:14.315Z,18.57
2022-10-12T08:08:22.269Z,18.90
2022-10-12T08:13:30.148Z,18.87
2022-10-12T08:18:38.073Z,19.03
2022-10-12T08:23:46.094Z,17.83
2022-10-12T08:28:54.683Z,16.40
2022-10-12T08:34:03.136Z,15.43
2022-10-12T08:39:11.500Z,15.97
2022-10-12T08:49:32.602Z,14.70
2022-10-12T08:54:42.435Z,14.80
2022-10-12T08:59:50.288Z,11.80
2022-10-12T09:05:01.215Z,10.73
2022-10-12T09:10:12.205Z,10.83
2022-10-12T09:15:22.939Z,9.53
2022-10-12T09:20:36.316Z,9.70
2022-10-12T09:25:44.467Z,10.03
2022-10-12T09:30:56.151Z,9.60
2022-10-12T09:36:05.118Z,9.90
2022-10-12T09:41:16.639Z,10.27
2022-10-12T09:46:28.434Z,9.40
2022-10-12T09:51:37.332Z,9.83
2022-10-12T09:56:47.143Z,8.23
2022-10-12T10:01:58.157Z,8.63
2022-10-12T10:07:09.128Z,7.33
2022-10-12T10:12:25.448Z,7.77
2022-10-12T10:17:35.136Z,7.47
2022-10-12T10:22:47.158Z,7.73
2022-10-12T10:27:58.123Z,6.20
2022-10-12T10:33:08.870Z,7.53
2022-10-12T10:38:16.964Z,5.43
2022-10-12T10:43:27.889Z,5.60
2022-10-12T10:48:39.937Z,7.07
2022-10-12T10:53:52.224Z,5.50
2022-10-12T10:59:07.710Z,4.53
2022-10-12T11:04:15.646Z,4.67
2022-10-12T11:09:27.702Z,4.40
2022-10-12T11:14:38.221Z,3.07
2022-10-12T11:19:50.804Z,2.30
2022-10-12T11:30:16.580Z,3.07
2022-10-12T11:35:28.375Z,2.03
2022-10-12T11:45:52.170Z,2.23
2022-10-12T11:51:03.858Z,2.70
2022-10-12T11:56:13.297Z,2.63
2022-10-12T12:01:24.338Z,1.80
2022-10-12T12:11:48.273Z,2.83
2022-10-12T12:16:59.329Z,1.80
2022-10-12T12:22:10.683Z,2.00
2022-10-12T12:27:21.832Z,1.63
2022-10-12T12:32:32.887Z,2.10
2022-10-12T12:37:41.134Z,1.90
2022-10-12T12:42:49.062Z,2.30
2022-10-12T12:47:56.954Z,1.90
2022-10-12T12:53:08.838Z,2.00
2022-10-12T12:58:19.781Z,2.40
2022-10-12T13:03:30.913Z,1.43
2022-10-12T13:08:42.962Z,1.70
2022-10-12T13:13:53.984Z,1.77
2022-10-12T13:19:02.873Z,2.00
2022-10-12T13:29:26.837Z,1.73
2022-10-12T13:34:38.134Z,1.93
2022-10-12T13:39:47.403Z,1.87
2022-10-12T13:44:56.251Z,1.87
2022-10-12T13:50:04.520Z,1.97
2022-10-12T13:55:15.479Z,1.50
2022-10-12T14:00:26.573Z,2.00
2022-10-12T14:05:35.697Z,1.90
2022-10-12T14:10:44.705Z,1.70
2022-10-12T14:15:52.502Z,1.33
2022-10-12T14:21:03.664Z,2.00
2022-10-12T14:26:14.791Z,1.50
2022-10-12T14:31:25.801Z,1.50
2022-10-12T14:36:33.585Z,2.03
2022-10-12T14:41:44.934Z,2.10
2022-10-12T14:46:56.027Z,2.17
2022-10-12T14:52:05.594Z,2.00
2022-10-12T14:57:16.759Z,2.20
2022-10-12T15:02:27.912Z,2.50
2022-10-12T15:07:35.948Z,2.20
2022-10-12T15:12:44.396Z,2.30
2022-10-12T15:17:52.571Z,2.30
2022-10-12T15:23:00.802Z,2.83
2022-10-12T15:28:08.794Z,2.70
2022-10-12T15:33:16.716Z,3.10
2022-10-12T15:38:24.666Z,3.27
2022-10-12T15:43:35.628Z,4.30
2022-10-12T15:48:44.116Z,4.20
2022-10-12T15:53:54.437Z,4.40
2022-10-12T15:59:02.799Z,4.90
2022-10-12T16:04:12.302Z,3.90
2022-10-12T16:09:20.264Z,4.97
2022-10-12T16:14:28.365Z,4.77
2022-10-12T16:19:37.033Z,3.70
2022-10-12T16:24:44.912Z,3.90
2022-10-12T16:29:53.150Z,5.50
2022-10-12T16:35:01.051Z,8.87
2022-10-12T16:40:09.667Z,11.33
2022-10-12T16:45:17.611Z,15.10
2022-10-12T16:50:26.541Z,11.93
2022-10-12T16:55:34.690Z,10.20
2022-10-12T17:00:43.657Z,9.67
2022-10-12T17:05:54.698Z,11.23
2022-10-12T17:11:05.760Z,12.70
2022-10-12T17:16:15.517Z,14.57
2022-10-12T17:21:24.440Z,16.00
2022-10-12T17:26:32.461Z,20.87
2022-10-12T17:31:40.923Z,19.77
2022-10-12T17:36:48.943Z,31.60
2022-10-12T17:41:57.434Z,33.77
2022-10-12T17:47:05.418Z,26.77
2022-10-12T17:52:16.662Z,25.40
2022-10-12T17:57:25.145Z,25.80
2022-10-12T18:02:33.235Z,24.23
2022-10-12T18:07:41.481Z,24.50
2022-10-12T18:12:50.489Z,26.83
2022-10-12T18:17:59.061Z,26.20
2022-10-12T18:23:07.083Z,25.33
2022-10-12T18:28:15.574Z,22.53
2022-10-12T18:33:23.556Z,22.50
2022-10-12T18:38:31.980Z,19.17
2022-10-12T18:43:39.903Z,19.27
2022-10-12T18:48:49.169Z,17.90
2022-10-12T18:53:57.583Z,18.53
2022-10-12T18:59:06.044Z,18.43
2022-10-12T19:04:15.837Z,17.77
2022-10-12T19:09:25.439Z,17.03
2022-10-12T19:14:36.338Z,17.60
2022-10-12T19:19:44.679Z,17.33
2022-10-12T19:24:53.330Z,17.10
2022-10-12T19:30:01.947Z,17.90
2022-10-12T19:35:10.180Z,22.20
2022-10-12T19:40:19.504Z,22.20
2022-10-12T19:45:28.889Z,20.90
2022-10-12T19:50:40.261Z,20.37
2022-10-12T19:55:49.919Z,21.03
2022-10-12T20:01:02.112Z,23.03
2022-10-12T20:06:10.813Z,23.13
2022-10-12T20:11:24.358Z,23.50
2022-10-12T20:16:34.824Z,22.43
2022-10-12T20:21:41.230Z,23.50
2022-10-12T20:26:49.263Z,23.90
2022-10-12T20:31:57.844Z,24.23
2022-10-12T20:37:05.699Z,20.73
2022-10-12T20:42:16.891Z,18.63
2022-10-12T20:47:23.990Z,16.13
2022-10-12T20:52:32.090Z,17.80
2022-10-12T20:57:40.463Z,17.10
2022-10-12T21:02:48.659Z,17.00
2022-10-12T21:07:56.814Z,15.87
2022-10-12T21:13:04.803Z,16.30
2022-10-12T21:18:13.332Z,14.47
2022-10-12T21:23:25.490Z,14.73
2022-10-12T21:28:33.474Z,13.93
2022-10-12T21:33:41.544Z,12.80
2022-10-12T21:38:50.459Z,12.33
2022-10-12T21:43:58.721Z,13.00
2022-10-12T21:49:08.901Z,14.33
2022-10-12T21:54:17.265Z,13.23
2022-10-12T21:59:25.116Z,13.07
2022-10-12T22:04:33.180Z,13.00
2022-10-12T22:09:41.432Z,15.17
2022-10-12T22:14:49.601Z,15.87
2022-10-12T22:19:57.517Z,14.53
2022-10-12T22:25:06.401Z,15.00
2022-10-12T22:30:14.631Z,14.83
2022-10-12T22:35:22.445Z,15.00
2022-10-12T22:40:31.115Z,14.87
2022-10-12T22:45:39.245Z,12.50
2022-10-12T22:50:47.897Z,12.47
2022-10-12T22:55:59.867Z,12.20
2022-10-12T23:01:09.939Z,13.30
2022-10-12T23:06:19.094Z,11.87
2022-10-12T23:11:28.655Z,12.53
2022-10-12T23:16:37.154Z,12.70
2022-10-12T23:21:45.318Z,12.83
2022-10-12T23:26:53.383Z,13.97
2022-10-12T23:32:01.373Z,13.60
2022-10-12T23:37:09.769Z,15.30
2022-10-12T23:42:17.903Z,12.83
2022-10-12T23:47:26.054Z,11.97
2022-10-12T23:52:34.144Z,10.43
2022-10-12T23:57:47.135Z,11.47
